Time;durP1;ratioP1;P1;durP2;ratioP2;P2;SDS_P1;SDS_P2;PMS_P1;PMS_P2;Temp;Humidity;BMP_temperature;BMP_pressure;BME280_temperature;BME280_humidity;BME280_pressure;Samples;Min_cycle;Max_cycle;Signal;HPM_P1;HPM_P2
2021/08/05 00:02:50;;;;;;;;;17.50;15.00;;;;;24.64;54.27;98338.25;6069378;28;96681;-57
2021/08/05 00:05:55;;;;;;;;;12.67;11.00;;;;;24.55;54.77;98331.97;6090481;28;97124;-57
2021/08/05 00:08:58;;;;;;;;;16.00;14.00;;;;;24.46;55.07;98328.41;6089551;28;96729;-57
2021/08/05 00:12:01;;;;;;;;;15.60;14.00;;;;;24.43;55.03;98318.84;6072639;28;100335;-57
2021/08/05 00:15:06;;;;;;;;;13.40;13.00;;;;;24.40;55.32;98319.50;6090591;28;96584;-57
2021/08/05 00:18:09;;;;;;;;;16.60;16.00;;;;;24.41;55.58;98323.06;6081498;28;96713;-58
2021/08/05 00:21:15;;;;;;;;;16.00;14.00;;;;;24.43;55.45;98320.81;6090190;28;97586;-59
2021/08/05 00:24:19;;;;;;;;;16.20;15.00;;;;;24.40;55.73;98315.91;6089177;28;97455;-59
2021/08/05 00:27:23;;;;;;;;;16.00;15.00;;;;;24.42;55.66;98321.94;6089704;28;97602;-59
2021/08/05 00:30:26;;;;;;;;;15.60;13.00;;;;;24.39;55.81;98317.06;6063984;28;96595;-59
2021/08/05 00:33:30;;;;;;;;;14.40;14.00;;;;;24.38;55.91;98315.47;6088381;28;97063;-59
2021/08/05 00:36:35;;;;;;;;;17.00;15.40;;;;;24.39;55.89;98317.88;6072710;28;97641;-57
2021/08/05 00:39:38;;;;;;;;;13.80;13.40;;;;;24.35;56.14;98319.66;6089005;28;97066;-58
2021/08/05 00:42:42;;;;;;;;;11.20;11.20;;;;;24.30;55.73;98295.03;6088697;28;97499;-58
2021/08/05 00:45:45;;;;;;;;;16.50;14.50;;;;;24.44;55.91;98312.19;6089948;28;96580;-59
2021/08/05 00:48:48;;;;;;;;;18.00;17.00;;;;;24.48;56.00;98309.63;6071820;28;97841;-57
2021/08/05 00:51:53;;;;;;;;;16.40;15.00;;;;;24.48;56.14;98298.59;6071690;28;97428;-59
2021/08/05 00:54:57;;;;;;;;;17.00;15.40;;;;;24.44;56.30;98290.16;6082788;28;97451;-59
2021/08/05 00:58:00;;;;;;;;;16.60;15.00;;;;;24.44;56.53;98281.88;6080831;28;97467;-57
2021/08/05 01:01:09;;;;;;;;;15.33;15.33;;;;;24.44;56.41;98259.84;6086970;28;99541;-59
2021/08/05 01:04:15;;;;;;;;;13.00;12.00;;;;;24.44;56.32;98259.03;6078395;28;97203;-59
2021/08/05 01:07:27;;;;;;;;;16.00;15.00;;;;;24.41;56.35;98262.44;6071900;28;97539;-59
2021/08/05 01:10:36;;;;;;;;;14.50;14.00;;;;;24.40;56.39;98260.81;6072266;28;97325;-59
2021/08/05 01:13:45;;;;;;;;;15.00;15.00;;;;;24.41;56.73;98268.78;6071179;28;97399;-59
2021/08/05 01:16:50;;;;;;;;;14.20;13.20;;;;;24.37;56.76;98261.47;6089364;28;96856;-59
2021/08/05 01:19:56;;;;;;;;;13.20;12.00;;;;;24.36;56.83;98257.91;6084309;28;97517;-59
2021/08/05 01:23:19;;;;;;;;;16.00;16.00;;;;;24.33;56.81;98241.25;6084559;28;96692;-58
2021/08/05 01:26:30;;;;;;;;;16.40;14.40;;;;;24.37;56.60;98233.94;6089453;28;97498;-59
2021/08/05 01:29:39;;;;;;;;;16.50;16.00;;;;;24.31;56.89;98238.00;6082314;28;96736;-59
2021/08/05 01:32:44;;;;;;;;;17.00;15.40;;;;;24.21;56.98;98228.13;6091450;28;97339;-59
2021/08/05 01:35:50;;;;;;;;;15.00;13.00;;;;;24.22;57.04;98224.25;6092491;28;96792;-59
2021/08/05 01:38:56;;;;;;;;;15.20;14.00;;;;;24.21;56.94;98224.56;6083239;28;97216;-59
2021/08/05 01:41:59;;;;;;;;;15.00;14.20;;;;;24.19;57.03;98216.63;6073661;28;97787;-59
2021/08/05 01:45:05;;;;;;;;;17.60;17.00;;;;;24.20;56.67;98211.91;6091676;28;96617;-59
2021/08/05 01:48:12;;;;;;;;;15.60;15.60;;;;;24.25;56.89;98217.25;6063168;28;97036;-59
2021/08/05 01:51:15;;;;;;;;;17.40;14.80;;;;;24.23;57.02;98211.28;6091724;28;96743;-59
2021/08/05 01:54:18;;;;;;;;;14.50;14.00;;;;;24.21;57.11;98214.34;6092909;28;97475;-59
2021/08/05 01:57:24;;;;;;;;;13.60;13.00;;;;;24.25;56.56;98220.81;6068489;28;97388;-58
2021/08/05 02:00:29;;;;;;;;;17.00;16.00;;;;;24.22;56.70;98220.66;6054054;28;97454;-60
2021/08/05 02:03:32;;;;;;;;;14.00;12.25;;;;;24.19;56.78;98213.84;6065462;28;97785;-60
2021/08/05 02:06:46;;;;;;;;;12.40;12.40;;;;;24.16;56.53;98212.59;6051764;28;97447;-58
2021/08/05 02:09:59;;;;;;;;;15.60;13.00;;;;;24.10;57.04;98213.03;6047005;28;97108;-58
2021/08/05 02:13:07;;;;;;;;;13.00;13.00;;;;;24.01;57.01;98215.81;6054217;28;97602;-60
2021/08/05 02:16:17;;;;;;;;;12.00;11.00;;;;;24.06;56.80;98212.88;6062754;28;97278;-60
2021/08/05 02:19:21;;;;;;;;;12.40;12.00;;;;;24.04;57.12;98214.38;6055690;28;97053;-58
2021/08/05 02:22:25;;;;;;;;;13.00;12.00;;;;;23.97;57.15;98209.34;6051082;28;97140;-58
2021/08/05 02:25:30;;;;;;;;;13.60;12.60;;;;;24.02;57.12;98203.66;6054180;28;96803;-58
2021/08/05 02:28:33;;;;;;;;;12.00;10.60;;;;;23.94;57.28;98200.94;6061990;28;97515;-60
2021/08/05 02:31:39;;;;;;;;;14.00;13.40;;;;;23.86;57.46;98201.72;6049496;28;98641;-60
2021/08/05 02:34:45;;;;;;;;;15.00;13.33;;;;;23.75;57.64;98206.75;6067517;28;97506;-59
2021/08/05 02:37:49;;;;;;;;;12.00;12.00;;;;;23.74;57.80;98200.47;6065908;28;97647;-59
2021/08/05 02:40:54;;;;;;;;;12.80;11.20;;;;;23.66;58.12;98192.19;6066186;28;97482;-59
2021/08/05 02:44:00;;;;;;;;;13.00;13.00;;;;;23.70;58.04;98187.66;6065264;28;97629;-59
2021/08/05 02:47:06;;;;;;;;;11.40;11.40;;;;;23.66;57.96;98192.19;6052479;28;97456;-59
2021/08/05 02:50:11;;;;;;;;;15.33;14.33;;;;;23.69;57.72;98197.88;6066302;28;97093;-59
2021/08/05 02:53:16;;;;;;;;;16.00;14.40;;;;;23.67;57.58;98200.13;6073234;28;97306;-59
2021/08/05 02:56:20;;;;;;;;;16.20;14.60;;;;;23.68;57.89;98192.69;6081851;28;97495;-58
2021/08/05 02:59:27;;;;;;;;;11.50;11.00;;;;;23.71;57.78;98208.53;6074118;28;97437;-59
2021/08/05 03:02:32;;;;;;;;;14.00;13.00;;;;;23.64;58.09;98202.72;6090211;28;96830;-60
2021/08/05 03:05:36;;;;;;;;;14.75;12.50;;;;;23.69;57.81;98202.56;6090762;28;98683;-59
2021/08/05 03:08:41;;;;;;;;;15.50;14.50;;;;;23.68;58.08;98187.16;6091055;28;97398;-60
2021/08/05 03:11:44;;;;;;;;;13.00;13.00;;;;;23.68;57.68;98189.91;6090365;28;96650;-59
2021/08/05 03:14:48;;;;;;;;;14.60;12.60;;;;;23.72;57.55;98188.94;6090938;28;97257;-60
2021/08/05 03:17:53;;;;;;;;;14.00;12.75;;;;;23.68;57.49;98190.72;6088516;28;96782;-58
2021/08/05 03:20:56;;;;;;;;;13.40;13.00;;;;;23.65;57.67;98193.34;6090909;28;97690;-59
2021/08/05 03:23:59;;;;;;;;;16.00;15.40;;;;;23.60;57.45;98185.25;6088086;28;97115;-60
2021/08/05 03:27:03;;;;;;;;;16.00;15.50;;;;;23.57;57.77;98189.44;6087030;28;96692;-59
2021/08/05 03:30:10;;;;;;;;;17.00;16.00;;;;;23.51;58.16;98184.41;6090148;28;97360;-59
2021/08/05 03:33:15;;;;;;;;;17.40;15.00;;;;;23.54;57.63;98194.78;6088902;28;96978;-60
2021/08/05 03:36:18;;;;;;;;;19.00;17.00;;;;;23.58;57.38;98198.50;6088044;28;97732;-59
2021/08/05 03:39:22;;;;;;;;;16.00;15.00;;;;;23.60;57.44;98201.75;6088385;28;97470;-58
2021/08/05 03:42:25;;;;;;;;;14.60;14.40;;;;;23.63;57.45;98196.41;6088919;28;98468;-59
2021/08/05 03:45:28;;;;;;;;;16.60;14.60;;;;;23.69;57.82;98188.78;6088558;28;97533;-59
2021/08/05 03:48:33;;;;;;;;;13.60;12.00;;;;;23.69;57.79;98170.34;6090479;28;97017;-59
2021/08/05 03:51:36;;;;;;;;;14.60;13.00;;;;;23.69;57.57;98166.78;6088208;28;97417;-59
2021/08/05 03:54:40;;;;;;;;;15.50;14.00;;;;;23.71;57.21;98167.25;6090381;28;96589;-59
2021/08/05 03:57:46;;;;;;;;;13.00;12.00;;;;;23.63;57.40;98160.63;6086534;28;97000;-58
2021/08/05 04:00:50;;;;;;;;;12.25;12.00;;;;;23.57;57.31;98163.84;6090335;28;97261;-58
2021/08/05 04:03:55;;;;;;;;;12.00;11.00;;;;;23.51;57.49;98148.63;6089519;28;97535;-58
2021/08/05 04:06:59;;;;;;;;;14.00;12.80;;;;;23.46;57.93;98151.53;6090172;28;97333;-59
2021/08/05 04:10:03;;;;;;;;;13.00;12.00;;;;;23.49;57.64;98157.22;6089324;28;97047;-58
2021/08/05 04:13:06;;;;;;;;;14.40;14.00;;;;;23.45;57.77;98163.69;6091563;28;96548;-59
2021/08/05 04:16:10;;;;;;;;;16.00;15.00;;;;;23.29;57.86;98155.09;6089139;28;97137;-59
2021/08/05 04:19:15;;;;;;;;;15.00;14.00;;;;;23.29;57.80;98160.59;6089841;28;97395;-59
2021/08/05 04:22:18;;;;;;;;;18.00;16.00;;;;;23.24;58.13;98156.03;6081283;28;97507;-60
2021/08/05 04:25:21;;;;;;;;;16.20;15.20;;;;;23.28;58.45;98150.72;6082474;28;97460;-58
2021/08/05 04:28:25;;;;;;;;;18.20;17.20;;;;;23.26;57.82;98153.78;6083330;28;97361;-59
2021/08/05 04:31:28;;;;;;;;;18.60;17.00;;;;;23.14;58.56;98153.59;6088940;28;97456;-59
2021/08/05 04:34:33;;;;;;;;;16.00;14.00;;;;;23.07;58.56;98147.75;6087875;28;96721;-57
2021/08/05 04:37:36;;;;;;;;;19.75;18.00;;;;;22.82;58.97;98127.34;6089455;28;96647;-59
2021/08/05 04:40:40;;;;;;;;;17.40;15.60;;;;;23.05;58.57;98147.28;6088604;28;97602;-60
2021/08/05 04:43:43;;;;;;;;;20.00;17.50;;;;;23.00;58.94;98141.13;6084498;28;96700;-59
2021/08/05 04:46:46;;;;;;;;;19.75;18.75;;;;;23.02;59.12;98136.13;6087434;28;97465;-59
2021/08/05 04:49:53;;;;;;;;;16.00;15.00;;;;;23.04;58.32;98123.66;6089405;28;97348;-60
2021/08/05 04:52:57;;;;;;;;;16.00;15.00;;;;;23.04;58.73;98122.84;6074340;28;97498;-59
2021/08/05 04:56:01;;;;;;;;;19.60;18.60;;;;;22.99;58.63;98115.56;6087114;28;96721;-59
2021/08/05 04:59:04;;;;;;;;;19.40;17.40;;;;;22.97;58.88;98104.06;6089442;28;97967;-59
2021/08/05 05:02:07;;;;;;;;;20.00;19.00;;;;;23.00;58.48;98103.47;6092336;28;98652;-60
2021/08/05 05:05:12;;;;;;;;;19.60;18.00;;;;;22.87;58.58;98107.16;6092736;28;97506;-59
2021/08/05 05:08:18;;;;;;;;;21.00;19.00;;;;;22.88;59.00;98108.75;6091877;28;96514;-59
2021/08/05 05:11:21;;;;;;;;;16.00;15.00;;;;;22.87;58.60;98109.91;6093170;28;97422;-59
2021/08/05 05:14:25;;;;;;;;;15.00;14.00;;;;;22.77;59.03;98105.50;6092555;28;96648;-59
2021/08/05 05:17:28;;;;;;;;;13.00;12.00;;;;;22.78;59.34;98109.06;6091662;28;97477;-59
2021/08/05 05:20:33;;;;;;;;;12.60;12.60;;;;;22.75;58.88;98094.03;6092281;28;97477;-59
2021/08/05 05:23:37;;;;;;;;;11.40;11.40;;;;;22.72;59.11;98093.88;6085597;28;97503;-60
2021/08/05 05:26:40;;;;;;;;;13.00;12.00;;;;;22.60;59.62;98079.91;6080541;28;97218;-60
2021/08/05 05:29:44;;;;;;;;;12.00;11.00;;;;;22.63;58.89;98076.50;6091105;28;96767;-60
2021/08/05 05:32:48;;;;;;;;;12.75;12.00;;;;;22.59;59.78;98072.78;6078953;28;97475;-60
2021/08/05 05:35:54;;;;;;;;;11.60;11.00;;;;;22.71;59.41;98078.50;6086029;28;96664;-59
2021/08/05 05:38:57;;;;;;;;;13.00;12.00;;;;;22.70;58.95;98088.69;6083569;28;97406;-60
2021/08/05 05:42:01;;;;;;;;;12.80;12.00;;;;;22.60;59.66;98083.47;6091751;28;97423;-59
2021/08/05 05:45:06;;;;;;;;;11.00;10.40;;;;;22.67;59.58;98108.53;6091808;28;97423;-59
2021/08/05 05:48:10;;;;;;;;;10.00;10.00;;;;;22.73;59.56;98106.47;6077003;28;97236;-60
2021/08/05 05:51:16;;;;;;;;;11.00;10.80;;;;;22.75;59.32;98115.19;6092085;28;97645;-59
2021/08/05 05:54:19;;;;;;;;;10.25;10.25;;;;;22.82;59.44;98110.06;6092254;28;97948;-58
2021/08/05 05:57:23;;;;;;;;;12.00;10.00;;;;;22.93;59.05;98092.13;6090502;28;97417;-59
2021/08/05 06:00:26;;;;;;;;;12.00;11.00;;;;;22.94;58.51;98095.69;6081294;28;97513;-60
2021/08/05 06:03:29;;;;;;;;;9.40;9.40;;;;;22.94;59.05;98091.00;6090628;28;96647;-59
2021/08/05 06:06:34;;;;;;;;;10.00;9.33;;;;;22.90;58.90;98073.53;6092057;28;97449;-59
2021/08/05 06:09:37;;;;;;;;;10.60;10.00;;;;;22.84;59.02;98056.38;6089166;28;96754;-59
2021/08/05 06:12:41;;;;;;;;;12.00;11.00;;;;;22.82;59.09;98055.88;6089365;28;97339;-59
2021/08/05 06:15:45;;;;;;;;;11.40;11.00;;;;;22.82;58.94;98053.13;6091313;28;96656;-59
2021/08/05 06:18:48;;;;;;;;;11.60;11.60;;;;;22.87;59.66;98055.72;6091770;28;97121;-61
2021/08/05 06:21:53;;;;;;;;;12.00;12.00;;;;;22.75;59.19;98041.81;6083329;28;97448;-60
2021/08/05 06:24:56;;;;;;;;;14.00;13.60;;;;;22.83;59.98;98045.69;6081954;28;98282;-60
2021/08/05 06:27:59;;;;;;;;;13.00;12.40;;;;;22.77;59.56;98028.56;6091506;28;96922;-61
2021/08/05 06:31:03;;;;;;;;;11.40;11.40;;;;;22.79;59.48;98036.47;6092203;28;97457;-57
2021/08/05 06:34:07;;;;;;;;;12.40;12.40;;;;;22.76;59.53;98009.66;6090043;28;97810;-58
2021/08/05 06:37:12;;;;;;;;;12.40;12.00;;;;;22.76;59.79;97998.66;6089787;28;97688;-58
2021/08/05 06:40:16;;;;;;;;;14.00;12.00;;;;;22.73;59.78;98021.28;6090490;28;96634;-58
2021/08/05 06:43:19;;;;;;;;;9.50;9.50;;;;;22.56;60.27;98023.97;6090734;28;96579;-58
2021/08/05 06:46:22;;;;;;;;;11.80;11.00;;;;;22.49;60.79;98024.44;6090060;28;97142;-59
2021/08/05 06:49:26;;;;;;;;;13.00;12.00;;;;;22.41;60.60;98030.75;6090918;28;96625;-58
2021/08/05 06:52:31;;;;;;;;;12.50;12.00;;;;;22.39;60.58;98032.97;6090973;28;97295;-59
2021/08/05 06:55:34;;;;;;;;;11.00;11.00;;;;;22.38;60.99;98043.16;6090746;28;96766;-59
2021/08/05 06:58:37;;;;;;;;;9.00;8.00;;;;;22.46;60.83;98058.88;6091735;28;96950;-57
2021/08/05 07:01:41;;;;;;;;;11.00;11.00;;;;;22.57;60.34;98077.81;6087191;28;96722;-57
2021/08/05 07:04:44;;;;;;;;;11.80;11.00;;;;;22.67;59.98;98083.00;6071870;28;96861;-58
2021/08/05 07:07:50;;;;;;;;;11.00;10.00;;;;;22.65;60.30;98079.75;6088155;28;97655;-58
2021/08/05 07:10:54;;;;;;;;;11.60;11.60;;;;;22.71;60.17;98087.56;6089466;28;97498;-58
2021/08/05 07:13:57;;;;;;;;;12.00;11.60;;;;;22.74;59.52;98084.16;6088713;28;98329;-58
2021/08/05 07:17:00;;;;;;;;;10.60;10.00;;;;;22.73;59.58;98085.28;6089640;28;96838;-58
2021/08/05 07:20:06;;;;;;;;;14.50;12.00;;;;;22.80;59.21;98082.06;6073027;28;97551;-58
2021/08/05 07:23:10;;;;;;;;;11.80;11.40;;;;;22.86;59.46;98078.06;6090621;28;97449;-58
2021/08/05 07:26:14;;;;;;;;;11.40;10.00;;;;;22.94;59.32;98088.25;6088482;28;97521;-58
2021/08/05 07:29:17;;;;;;;;;9.00;9.00;;;;;22.99;59.07;98079.03;6086960;28;97055;-59
2021/08/05 07:32:20;;;;;;;;;11.00;10.00;;;;;23.00;58.96;98067.72;6088489;28;97316;-58
2021/08/05 07:35:24;;;;;;;;;10.33;10.00;;;;;23.02;59.21;98068.19;6089007;28;98670;-58
2021/08/05 07:38:29;;;;;;;;;10.00;10.00;;;;;23.08;58.86;98060.59;6088610;28;97510;-58
2021/08/05 07:41:32;;;;;;;;;11.00;10.00;;;;;23.10;58.92;98055.59;6088812;28;96761;-58
2021/08/05 07:44:35;;;;;;;;;13.40;12.40;;;;;23.14;58.94;98054.63;6087965;28;97142;-59
2021/08/05 07:47:39;;;;;;;;;10.00;9.40;;;;;23.12;58.47;98051.38;6088506;28;96787;-58
2021/08/05 07:50:43;;;;;;;;;10.00;9.00;;;;;23.16;58.60;98046.06;6087700;28;97458;-59
2021/08/05 07:53:47;;;;;;;;;13.00;12.00;;;;;23.13;58.77;98046.69;6089556;28;97178;-60
2021/08/05 07:56:51;;;;;;;;;13.00;12.00;;;;;23.17;58.13;98053.97;6087895;28;97757;-58
2021/08/05 07:59:55;;;;;;;;;12.00;12.00;;;;;23.10;58.89;98044.59;6089592;28;96745;-60
2021/08/05 08:02:58;;;;;;;;;12.00;12.00;;;;;23.10;58.66;98041.84;6088606;28;97537;-58
2021/08/05 08:06:02;;;;;;;;;11.00;11.00;;;;;23.12;58.35;98043.13;6087769;28;99493;-60
2021/08/05 08:09:06;;;;;;;;;12.00;11.00;;;;;23.11;58.81;98037.97;6085997;28;97522;-59
2021/08/05 08:12:10;;;;;;;;;12.40;11.80;;;;;22.96;58.82;98036.50;6086649;28;96755;-58
2021/08/05 08:15:14;;;;;;;;;13.40;12.00;;;;;23.06;59.08;98036.19;6087309;28;98227;-59
2021/08/05 08:18:18;;;;;;;;;13.00;11.40;;;;;22.97;59.05;98034.56;6087813;28;96629;-59
2021/08/05 08:21:24;;;;;;;;;12.00;11.25;;;;;22.88;58.79;98046.34;6087332;28;97311;-58
2021/08/05 08:24:28;;;;;;;;;12.40;11.80;;;;;23.01;59.25;98043.78;6088012;28;97791;-59
2021/08/05 08:27:32;;;;;;;;;13.60;13.00;;;;;22.98;59.11;98042.47;6088680;28;97181;-59
2021/08/05 08:30:36;;;;;;;;;12.75;12.00;;;;;23.04;59.14;98040.38;6090067;28;96551;-60
2021/08/05 08:33:39;;;;;;;;;14.40;13.00;;;;;22.98;59.09;98030.69;6091338;28;97420;-58
2021/08/05 08:36:44;;;;;;;;;14.00;13.00;;;;;22.92;58.95;98030.03;6094159;28;96738;-59
2021/08/05 08:39:48;;;;;;;;;17.00;15.75;;;;;22.94;59.05;98030.53;6093175;28;96491;-60
2021/08/05 08:42:52;;;;;;;;;15.00;14.00;;;;;22.97;59.39;98031.81;6093399;28;97529;-59
2021/08/05 08:45:56;;;;;;;;;15.00;14.00;;;;;22.96;59.23;98042.00;6092927;28;97161;-59
2021/08/05 08:49:00;;;;;;;;;13.50;13.00;;;;;22.97;59.15;98040.84;6093664;28;96618;-60
2021/08/05 08:52:05;;;;;;;;;15.00;13.80;;;;;23.00;59.17;98042.16;6085414;28;97008;-57
2021/08/05 08:55:11;;;;;;;;;17.00;14.00;;;;;23.11;59.26;98030.53;6084236;28;97071;-58
2021/08/05 08:58:16;;;;;;;;;16.20;15.00;;;;;23.25;59.02;98039.41;6094114;28;98118;-58
2021/08/05 09:01:19;;;;;;;;;13.80;12.00;;;;;23.25;58.99;98027.63;6093322;28;97473;-58
2021/08/05 09:04:23;;;;;;;;;16.40;14.40;;;;;23.32;58.66;98017.72;6093544;28;96679;-58
2021/08/05 09:07:26;;;;;;;;;15.25;14.00;;;;;23.44;58.49;98008.00;6094206;28;96988;-59
2021/08/05 09:10:33;;;;;;;;;16.00;14.00;;;;;23.48;58.38;98009.00;6093567;28;96594;-58
2021/08/05 09:13:36;;;;;;;;;11.80;10.80;;;;;23.48;58.61;98001.53;6094170;28;96464;-58
2021/08/05 09:16:40;;;;;;;;;12.00;11.00;;;;;23.52;57.96;97997.00;6088502;28;97181;-59
2021/08/05 09:19:43;;;;;;;;;14.00;13.00;;;;;23.44;57.94;97994.25;6077450;28;97573;-59
2021/08/05 09:22:46;;;;;;;;;12.40;12.00;;;;;23.54;58.22;98007.69;6092943;28;96641;-59
2021/08/05 09:25:51;;;;;;;;;11.00;10.00;;;;;23.48;58.08;98004.31;6093286;28;97383;-59
2021/08/05 09:29:13;;;;;;;;;16.00;14.00;;;;;23.51;57.92;98000.06;6093760;28;97388;-58
2021/08/05 09:32:26;;;;;;;;;12.00;11.00;;;;;23.42;58.35;98002.81;6083695;28;96930;-60
2021/08/05 09:35:30;;;;;;;;;13.00;11.25;;;;;23.31;58.62;97999.59;6093405;28;97512;-58
2021/08/05 09:38:33;;;;;;;;;12.00;12.00;;;;;23.17;59.08;97996.22;6093332;28;97416;-58
2021/08/05 09:41:51;;;;;;;;;13.00;12.00;;;;;23.13;58.77;97995.25;6091796;28;97808;-57
2021/08/05 09:44:56;;;;;;;;;12.60;12.00;;;;;23.13;59.16;97984.25;6093196;28;97445;-57
2021/08/05 09:47:59;;;;;;;;;11.00;11.00;;;;;23.17;58.88;97985.22;6078980;28;98151;-59
2021/08/05 09:51:12;;;;;;;;;14.00;13.00;;;;;23.16;59.32;97969.06;6093492;28;97206;-58
2021/08/05 09:54:15;;;;;;;;;11.00;11.00;;;;;23.24;59.44;97971.81;6078404;28;97582;-58
2021/08/05 09:57:25;;;;;;;;;10.00;10.00;;;;;23.21;59.29;97975.19;6077987;28;96658;-58
2021/08/05 10:00:42;;;;;;;;;13.00;12.00;;;;;23.16;59.43;97969.88;6081838;28;97542;-59
2021/08/05 10:03:45;;;;;;;;;10.00;9.20;;;;;23.13;58.90;97956.75;6084436;28;96505;-59
2021/08/05 10:06:59;;;;;;;;;13.00;12.00;;;;;23.23;59.30;97952.88;6081555;28;97421;-60
2021/08/05 10:10:03;;;;;;;;;11.00;10.40;;;;;23.21;58.93;97950.44;6076351;28;97222;-58
2021/08/05 10:13:08;;;;;;;;;12.00;11.00;;;;;23.15;59.24;97934.47;6077113;28;97445;-58
2021/08/05 10:16:13;;;;;;;;;13.60;13.00;;;;;23.09;59.34;97922.00;6067784;28;98629;-60
2021/08/05 10:19:20;;;;;;;;;10.00;9.80;;;;;22.85;59.59;97893.13;6084651;28;97433;-60
2021/08/05 10:22:24;;;;;;;;;9.00;9.00;;;;;22.91;59.43;97891.00;6078730;28;96602;-59
2021/08/05 10:25:28;;;;;;;;;13.50;11.75;;;;;23.04;59.51;97916.69;6076061;28;97048;-59
2021/08/05 10:28:34;;;;;;;;;12.00;11.00;;;;;22.97;59.90;97916.38;6080789;28;97105;-60
2021/08/05 10:31:40;;;;;;;;;13.00;12.00;;;;;22.95;60.00;97913.13;6084375;28;96947;-59
2021/08/05 10:34:46;;;;;;;;;14.60;12.40;;;;;22.97;59.86;97911.66;6081069;28;97626;-58
2021/08/05 10:37:51;;;;;;;;;14.00;13.20;;;;;22.84;60.25;97904.41;6073736;28;97557;-59
2021/08/05 10:40:55;;;;;;;;;14.00;12.00;;;;;22.81;60.01;97913.31;6088537;28;97257;-59
2021/08/05 10:44:00;;;;;;;;;14.00;13.00;;;;;22.68;60.44;97901.31;6075624;28;97445;-58
2021/08/05 10:47:06;;;;;;;;;14.00;14.00;;;;;22.75;60.61;97906.38;6077235;28;96789;-58
2021/08/05 10:50:13;;;;;;;;;15.00;14.00;;;;;22.75;60.65;97904.44;6066530;28;97641;-59
2021/08/05 10:53:42;;;;;;;;;16.00;15.00;;;;;22.67;60.91;97896.19;6087041;28;97616;-59
2021/08/05 10:56:45;;;;;;;;;14.00;14.00;;;;;22.73;60.59;97889.38;6089243;28;97512;-59
2021/08/05 11:00:04;;;;;;;;;17.00;16.00;;;;;22.77;60.85;97885.66;6087235;28;97640;-60
2021/08/05 11:03:07;;;;;;;;;15.00;15.00;;;;;22.78;60.67;97880.97;6080773;28;97123;-58
2021/08/05 11:06:32;;;;;;;;;15.75;15.25;;;;;22.88;60.54;97873.22;6083819;28;97189;-59
2021/08/05 11:09:36;;;;;;;;;19.00;17.00;;;;;22.93;60.27;97872.22;6086935;28;97071;-58
2021/08/05 11:12:41;;;;;;;;;19.00;17.00;;;;;22.97;60.38;97862.19;6089904;28;97799;-58
2021/08/05 11:15:52;;;;;;;;;19.00;17.50;;;;;22.96;60.13;97857.03;6075517;28;97510;-59
2021/08/05 11:19:20;;;;;;;;;19.40;18.40;;;;;23.04;59.92;97854.25;6067722;28;96485;-60
2021/08/05 11:22:53;;;;;;;;;20.00;16.75;;;;;23.00;59.95;97856.06;6087747;28;97482;-58
2021/08/05 11:26:05;;;;;;;;;18.00;16.00;;;;;23.05;59.74;97850.38;6089491;28;98625;-58
2021/08/05 11:29:28;;;;;;;;;21.00;18.50;;;;;23.06;60.14;97843.75;6079395;28;97022;-58
2021/08/05 11:32:41;;;;;;;;;17.60;17.40;;;;;23.10;60.06;97838.41;6090645;28;97489;-57
2021/08/05 11:36:20;;;;;;;;;18.00;17.00;;;;;23.08;59.96;97841.47;6087138;28;97577;-58
2021/08/05 11:39:30;;;;;;;;;18.00;16.00;;;;;23.09;59.95;97839.53;6084060;28;96602;-58
2021/08/05 11:42:35;;;;;;;;;17.00;15.20;;;;;23.15;59.92;97832.72;6078554;28;97942;-60
2021/08/05 11:45:38;;;;;;;;;18.20;16.00;;;;;23.16;59.91;97815.91;6086106;28;97456;-60
2021/08/05 11:48:43;;;;;;;;;19.80;17.80;;;;;23.17;59.81;97814.75;6089661;28;97004;-60
2021/08/05 11:51:46;;;;;;;;;19.50;17.00;;;;;23.17;59.74;97806.50;6089648;28;96501;-60
2021/08/05 11:54:52;;;;;;;;;18.00;15.60;;;;;23.07;60.36;97809.59;6089358;28;97554;-58
2021/08/05 11:57:57;;;;;;;;;21.25;19.25;;;;;23.02;60.55;97800.75;6089803;28;97510;-59
2021/08/05 12:01:01;;;;;;;;;24.25;19.00;;;;;23.03;60.50;97796.84;6074379;28;97307;-60
2021/08/05 12:04:21;;;;;;;;;21.00;17.40;;;;;23.01;60.60;97785.41;6085583;28;98092;-59
2021/08/05 12:07:27;;;;;;;;;22.80;19.00;;;;;22.82;60.78;97761.84;6060735;28;96725;-59
2021/08/05 12:10:31;;;;;;;;;21.80;19.20;;;;;23.13;60.43;97772.56;6079743;28;96713;-60
2021/08/05 12:13:41;;;;;;;;;21.20;19.00;;;;;23.18;60.12;97769.63;6089250;28;97418;-60
2021/08/05 12:16:45;;;;;;;;;21.25;19.25;;;;;23.18;60.14;97763.31;6088549;28;97229;-59
2021/08/05 12:19:51;;;;;;;;;22.00;19.00;;;;;23.10;60.36;97764.97;6088436;28;97483;-60
2021/08/05 12:22:56;;;;;;;;;21.75;20.00;;;;;23.07;60.53;97756.56;6089274;28;97527;-60
2021/08/05 12:26:04;;;;;;;;;24.00;21.50;;;;;22.85;60.78;97749.41;6072750;28;96546;-59
2021/08/05 12:29:09;;;;;;;;;23.25;19.25;;;;;23.08;60.83;97766.44;6089516;28;97511;-58
2021/08/05 12:32:13;;;;;;;;;24.00;22.00;;;;;23.10;60.94;97756.75;6088287;28;97446;-58
2021/08/05 12:35:18;;;;;;;;;23.00;19.60;;;;;23.14;60.56;97748.63;6070994;28;98069;-57
2021/08/05 12:38:21;;;;;;;;;21.00;19.00;;;;;23.09;60.51;97741.38;6063296;28;97145;-57
2021/08/05 12:41:26;;;;;;;;;20.40;17.00;;;;;23.12;60.92;97740.69;6069113;28;96725;-59
2021/08/05 12:44:34;;;;;;;;;21.25;19.25;;;;;23.23;60.60;97733.69;6088765;28;97582;-59
2021/08/05 12:47:38;;;;;;;;;18.00;17.00;;;;;23.18;60.43;97720.13;6073595;28;98783;-58
2021/08/05 12:50:45;;;;;;;;;18.40;17.00;;;;;23.21;60.55;97730.47;6088862;28;96704;-59
2021/08/05 12:53:56;;;;;;;;;19.20;18.00;;;;;23.14;60.60;97737.63;6088720;28;97739;-58
2021/08/05 12:57:00;;;;;;;;;18.40;17.40;;;;;23.09;61.02;97741.38;6071164;28;97117;-57
2021/08/05 13:00:06;;;;;;;;;21.00;18.00;;;;;23.12;60.87;97746.19;6088515;28;97563;-59
2021/08/05 13:03:40;;;;;;;;;15.50;14.00;;;;;23.11;60.70;97733.63;6072968;28;97073;-59
2021/08/05 13:06:53;;;;;;;;;15.50;14.50;;;;;23.13;60.63;97730.50;6088864;28;97326;-59
2021/08/05 13:09:57;;;;;;;;;16.50;14.00;;;;;23.20;60.78;97730.81;6084145;28;96801;-59
2021/08/05 13:13:00;;;;;;;;;16.00;14.80;;;;;23.11;60.58;97719.06;6085943;28;97037;-59
2021/08/05 13:16:20;;;;;;;;;16.40;14.40;;;;;23.15;61.19;97722.75;6087035;28;97411;-59
2021/08/05 13:19:24;;;;;;;;;17.50;15.50;;;;;23.22;61.00;97720.28;6091738;28;97136;-57
2021/08/05 13:22:39;;;;;;;;;15.00;14.00;;;;;23.20;61.04;97715.13;6093367;28;97453;-56
2021/08/05 13:25:44;;;;;;;;;16.60;15.60;;;;;23.08;60.69;97693.03;6091996;28;97218;-59
2021/08/05 13:28:47;;;;;;;;;14.00;14.00;;;;;23.24;60.69;97713.31;6078479;28;96966;-59
2021/08/05 13:31:58;;;;;;;;;15.00;14.60;;;;;23.29;60.72;97710.38;6088280;28;97513;-59
2021/08/05 13:35:06;;;;;;;;;17.00;15.00;;;;;23.29;60.33;97709.56;6091142;28;97379;-58
2021/08/05 13:38:11;;;;;;;;;16.40;15.00;;;;;23.14;60.57;97693.66;6085256;28;97455;-58
2021/08/05 13:41:15;;;;;;;;;19.00;17.00;;;;;23.15;60.71;97693.31;6075266;28;97146;-58
2021/08/05 13:44:18;;;;;;;;;16.60;15.00;;;;;23.12;60.88;97695.91;6091265;28;96859;-58
2021/08/05 13:47:22;;;;;;;;;16.00;15.00;;;;;23.18;60.80;97678.91;6091431;28;96964;-60
2021/08/05 13:50:28;;;;;;;;;14.00;13.50;;;;;23.19;60.52;97665.97;6093122;28;98357;-58
2021/08/05 13:53:33;;;;;;;;;15.00;13.00;;;;;23.30;60.81;97661.69;6076364;28;97502;-57
2021/08/05 13:56:37;;;;;;;;;15.60;13.00;;;;;23.27;60.61;97660.41;6092115;28;97146;-58
2021/08/05 13:59:41;;;;;;;;;13.60;12.60;;;;;23.28;60.00;97658.44;6077603;28;97572;-58
2021/08/05 14:02:45;;;;;;;;;12.75;11.75;;;;;23.30;60.53;97646.00;6089234;28;97205;-58
2021/08/05 14:05:50;;;;;;;;;13.00;12.50;;;;;23.25;60.79;97648.13;6092247;28;96515;-60
2021/08/05 14:08:54;;;;;;;;;12.60;12.00;;;;;23.23;60.86;97636.66;6077698;28;97706;-59
2021/08/05 14:11:58;;;;;;;;;14.00;12.60;;;;;23.20;60.76;97634.59;6090286;28;97091;-61
2021/08/05 14:15:01;;;;;;;;;10.60;10.00;;;;;23.22;60.31;97615.78;6091586;28;97455;-60